Time;durP1;ratioP1;P1;durP2;ratioP2;P2;SDS_P1;SDS_P2;PMS_P1;PMS_P2;Temp;Humidity;BMP_temperature;BMP_pressure;BME280_temperature;BME280_humidity;BME280_pressure;Samples;Min_cycle;Max_cycle;Signal;HPM_P1;HPM_P2
2023/07/24 00:01:11;;;;;;;11.73;7.90;;;;;;;;;;5000518;28;20277;-67
2023/07/24 00:03:36;;;;;;;12.57;7.57;;;;;;;;;;4986601;28;20414;-67
2023/07/24 00:06:01;;;;;;;22.73;16.73;;;;;;;;;;4989798;28;20445;-66
2023/07/24 00:08:26;;;;;;;16.00;11.27;;;;;;;;;;4988822;28;20420;-66
2023/07/24 00:10:51;;;;;;;22.50;16.13;;;;;;;;;;5006599;28;20285;-67
2023/07/24 00:13:17;;;;;;;13.57;9.63;;;;;;;;;;4987417;28;20640;-67
2023/07/24 00:15:42;;;;;;;12.67;8.50;;;;;;;;;;4991229;28;20265;-66
2023/07/24 00:18:07;;;;;;;13.70;8.00;;;;;;;;;;4986167;28;20058;-67
2023/07/24 00:20:33;;;;;;;11.23;7.53;;;;;;;;;;5024470;28;20362;-67
2023/07/24 00:22:58;;;;;;;12.50;7.43;;;;;;;;;;5011698;28;20111;-67
2023/07/24 00:25:23;;;;;;;12.73;7.80;;;;;;;;;;4976096;28;20766;-65
2023/07/24 00:27:48;;;;;;;9.37;7.20;;;;;;;;;;4997662;28;20474;-66
2023/07/24 00:30:13;;;;;;;10.17;7.47;;;;;;;;;;5008769;28;20594;-66
2023/07/24 00:32:39;;;;;;;12.00;8.70;;;;;;;;;;5008631;28;20292;-66
2023/07/24 00:35:04;;;;;;;22.63;11.90;;;;;;;;;;4998003;28;20528;-66
2023/07/24 00:37:29;;;;;;;14.98;10.25;;;;;;;;;;4993837;28;20311;-65
2023/07/24 00:39:55;;;;;;;11.73;9.40;;;;;;;;;;5004722;28;20081;-67
2023/07/24 00:42:20;;;;;;;11.33;8.50;;;;;;;;;;5028006;28;20263;-66
2023/07/24 00:44:45;;;;;;;12.60;7.95;;;;;;;;;;5028204;28;20035;-66
2023/07/24 00:47:10;;;;;;;12.43;9.05;;;;;;;;;;5015527;28;20029;-66
2023/07/24 00:49:36;;;;;;;16.38;11.20;;;;;;;;;;5008599;28;20062;-67
2023/07/24 00:52:01;;;;;;;16.90;12.13;;;;;;;;;;5024010;28;20032;-66
2023/07/24 00:54:26;;;;;;;17.10;12.73;;;;;;;;;;4995454;28;20034;-66
2023/07/24 00:56:52;;;;;;;21.75;13.38;;;;;;;;;;4988462;28;20262;-67
2023/07/24 00:59:17;;;;;;;21.70;16.37;;;;;;;;;;4998090;28;20192;-66
2023/07/24 01:01:42;;;;;;;15.50;10.30;;;;;;;;;;5008200;28;20386;-66
2023/07/24 01:04:07;;;;;;;10.75;7.82;;;;;;;;;;4991904;28;20268;-68
2023/07/24 01:06:33;;;;;;;11.70;7.20;;;;;;;;;;4992003;28;20022;-67
2023/07/24 01:08:58;;;;;;;10.93;7.43;;;;;;;;;;4978664;28;20268;-67
2023/07/24 01:11:29;;;;;;;10.98;7.25;;;;;;;;;;5001881;28;20650;-66
2023/07/24 01:13:58;;;;;;;11.20;7.18;;;;;;;;;;4986136;28;20054;-66
2023/07/24 01:16:25;;;;;;;10.37;7.07;;;;;;;;;;4989928;28;20037;-66
2023/07/24 01:18:50;;;;;;;10.43;7.15;;;;;;;;;;5005797;28;20068;-67
2023/07/24 01:21:16;;;;;;;11.17;7.50;;;;;;;;;;5006812;28;20125;-67
2023/07/24 01:23:46;;;;;;;12.00;7.23;;;;;;;;;;5001331;28;20117;-67
2023/07/24 01:26:11;;;;;;;;;;;;;;;;;;4983137;28;20297;-66
2023/07/24 01:28:36;;;;;;;10.85;7.43;;;;;;;;;;4994905;28;19936;-66
2023/07/24 01:31:01;;;;;;;10.13;7.50;;;;;;;;;;5007542;28;20447;-67
2023/07/24 01:33:27;;;;;;;11.47;7.37;;;;;;;;;;5006744;28;20050;-66
2023/07/24 01:35:57;;;;;;;10.65;6.70;;;;;;;;;;4970097;28;20293;-65
2023/07/24 01:38:22;;;;;;;;;;;;;;;;;;5001688;28;20442;-65
2023/07/24 01:40:47;;;;;;;10.60;6.63;;;;;;;;;;5004947;28;19939;-67
2023/07/24 01:43:12;;;;;;;11.45;7.30;;;;;;;;;;4978235;28;20037;-66
2023/07/24 01:45:38;;;;;;;10.48;7.22;;;;;;;;;;4996145;28;20023;-67
2023/07/24 01:48:06;;;;;;;12.70;7.67;;;;;;;;;;4992994;28;20526;-66
2023/07/24 01:50:31;;;;;;;10.25;6.97;;;;;;;;;;4989157;28;20068;-66
2023/07/24 01:52:56;;;;;;;11.57;7.38;;;;;;;;;;4990970;28;20030;-67
2023/07/24 01:55:22;;;;;;;11.40;7.63;;;;;;;;;;5006244;28;20060;-67
2023/07/24 01:57:47;;;;;;;10.93;7.17;;;;;;;;;;5002537;28;20365;-67
2023/07/24 02:00:12;;;;;;;12.15;7.07;;;;;;;;;;5001306;28;20034;-66
2023/07/24 02:02:37;;;;;;;11.00;7.05;;;;;;;;;;4973948;28;20375;-66
2023/07/24 02:05:03;;;;;;;11.85;7.32;;;;;;;;;;4988498;28;20050;-66
2023/07/24 02:07:28;;;;;;;10.25;6.85;;;;;;;;;;4994870;28;20039;-65
2023/07/24 02:09:53;;;;;;;11.27;7.23;;;;;;;;;;4989206;28;20482;-66
2023/07/24 02:12:18;;;;;;;11.33;7.60;;;;;;;;;;5019721;28;20383;-66
2023/07/24 02:14:44;;;;;;;9.77;6.60;;;;;;;;;;5023439;28;20320;-66
2023/07/24 02:17:09;;;;;;;10.63;7.20;;;;;;;;;;5003278;28;20042;-68
2023/07/24 02:19:34;;;;;;;10.33;7.00;;;;;;;;;;4985938;28;20280;-68
2023/07/24 02:21:59;;;;;;;10.20;6.80;;;;;;;;;;4988899;28;20056;-69
2023/07/24 02:24:24;;;;;;;11.10;6.93;;;;;;;;;;5006788;28;20042;-68
2023/07/24 02:26:50;;;;;;;14.00;7.87;;;;;;;;;;5006480;28;20285;-68
2023/07/24 02:29:15;;;;;;;9.20;6.80;;;;;;;;;;4989040;28;20780;-68
2023/07/24 02:31:40;;;;;;;10.25;7.18;;;;;;;;;;5006733;28;20281;-69
2023/07/24 02:34:06;;;;;;;11.57;6.88;;;;;;;;;;5005622;28;20187;-68
2023/07/24 02:36:31;;;;;;;10.90;7.43;;;;;;;;;;4987887;28;20038;-68
2023/07/24 02:38:56;;;;;;;11.37;7.27;;;;;;;;;;4997392;28;20280;-68
2023/07/24 02:41:21;;;;;;;10.65;7.18;;;;;;;;;;5017534;28;20379;-70
2023/07/24 02:43:46;;;;;;;11.17;7.77;;;;;;;;;;5012423;28;20064;-69
2023/07/24 02:46:12;;;;;;;12.40;7.47;;;;;;;;;;5005968;28;20029;-70
2023/07/24 02:48:37;;;;;;;11.68;7.22;;;;;;;;;;4995402;28;20276;-69
2023/07/24 02:51:02;;;;;;;11.77;7.00;;;;;;;;;;5017186;28;20037;-69
2023/07/24 02:53:28;;;;;;;12.40;7.20;;;;;;;;;;5010167;28;20295;-71
2023/07/24 02:55:53;;;;;;;11.33;7.40;;;;;;;;;;5014915;28;20334;-71
2023/07/24 02:58:18;;;;;;;12.57;7.57;;;;;;;;;;4990113;28;20034;-72
2023/07/24 03:00:43;;;;;;;10.60;7.30;;;;;;;;;;5006933;28;20034;-70
2023/07/24 03:03:08;;;;;;;12.50;7.13;;;;;;;;;;5007372;28;20337;-70
2023/07/24 03:05:34;;;;;;;10.03;6.93;;;;;;;;;;5006241;28;20291;-69
2023/07/24 03:07:59;;;;;;;12.15;7.32;;;;;;;;;;4997546;28;20317;-70
2023/07/24 03:10:24;;;;;;;10.00;7.17;;;;;;;;;;4999486;28;20061;-70
2023/07/24 03:12:50;;;;;;;11.68;7.78;;;;;;;;;;5004095;28;21102;-70
2023/07/24 03:15:15;;;;;;;12.33;7.53;;;;;;;;;;5000109;28;20522;-69
2023/07/24 03:17:40;;;;;;;11.52;7.32;;;;;;;;;;4993764;28;20033;-68
2023/07/24 03:20:15;;;;;;;10.80;7.30;;;;;;;;;;4989396;28;20045;-69
2023/07/24 03:22:41;;;;;;;11.98;7.05;;;;;;;;;;5007548;28;20034;-69
2023/07/24 03:25:06;;;;;;;12.02;7.95;;;;;;;;;;4992786;28;20100;-68
2023/07/24 03:27:32;;;;;;;11.70;7.18;;;;;;;;;;4997890;28;20137;-69
2023/07/24 03:29:57;;;;;;;12.57;7.22;;;;;;;;;;5000280;28;20072;-70
2023/07/24 03:32:22;;;;;;;12.30;7.27;;;;;;;;;;5006190;28;20568;-69
2023/07/24 03:34:47;;;;;;;10.17;7.47;;;;;;;;;;4988641;28;20776;-70
2023/07/24 03:37:13;;;;;;;11.87;7.27;;;;;;;;;;5006760;28;20308;-70
2023/07/24 03:39:38;;;;;;;12.77;8.23;;;;;;;;;;4999555;28;20034;-70
2023/07/24 03:42:03;;;;;;;12.57;7.77;;;;;;;;;;5007654;28;20073;-69
2023/07/24 03:44:28;;;;;;;13.75;7.65;;;;;;;;;;5002607;28;20280;-69
2023/07/24 03:46:54;;;;;;;9.77;7.07;;;;;;;;;;5005973;28;20037;-70
2023/07/24 03:49:19;;;;;;;11.67;7.60;;;;;;;;;;5006224;28;20281;-69
2023/07/24 03:51:44;;;;;;;12.77;7.80;;;;;;;;;;5005260;28;20277;-69
2023/07/24 03:54:10;;;;;;;11.43;7.60;;;;;;;;;;4999134;28;20309;-69
2023/07/24 03:56:35;;;;;;;11.07;7.18;;;;;;;;;;5006844;28;20826;-70
2023/07/24 03:59:00;;;;;;;12.47;8.03;;;;;;;;;;5009710;28;20125;-70
2023/07/24 04:01:25;;;;;;;12.33;7.47;;;;;;;;;;5006530;28;20781;-69
2023/07/24 04:03:51;;;;;;;11.95;7.13;;;;;;;;;;5004651;28;20739;-69
2023/07/24 04:06:16;;;;;;;12.70;7.75;;;;;;;;;;5001624;28;20706;-69
2023/07/24 04:08:41;;;;;;;12.13;7.97;;;;;;;;;;4985800;28;20560;-69
2023/07/24 04:11:06;;;;;;;12.98;7.80;;;;;;;;;;5006770;28;20324;-68
2023/07/24 04:13:32;;;;;;;12.53;7.60;;;;;;;;;;5002316;28;20422;-69
2023/07/24 04:15:59;;;;;;;12.17;7.87;;;;;;;;;;5006032;28;20308;-70
2023/07/24 04:18:24;;;;;;;13.75;7.82;;;;;;;;;;5006069;28;20081;-69
2023/07/24 04:20:49;;;;;;;11.95;7.47;;;;;;;;;;5000362;28;20038;-69
2023/07/24 04:23:15;;;;;;;12.07;7.80;;;;;;;;;;5009144;28;20049;-69
2023/07/24 04:25:40;;;;;;;13.30;7.70;;;;;;;;;;5009521;28;20295;-70
2023/07/24 04:28:05;;;;;;;15.10;8.60;;;;;;;;;;4999337;28;20297;-69
2023/07/24 04:30:30;;;;;;;17.33;7.93;;;;;;;;;;5004729;28;20293;-68
2023/07/24 04:32:55;;;;;;;15.17;9.33;;;;;;;;;;5000306;28;20038;-69
2023/07/24 04:35:21;;;;;;;15.07;8.93;;;;;;;;;;5002449;28;20371;-70
2023/07/24 04:37:46;;;;;;;13.93;8.57;;;;;;;;;;5001063;28;20894;-71
2023/07/24 04:40:11;;;;;;;14.48;8.35;;;;;;;;;;4999608;28;20801;-70
2023/07/24 04:42:37;;;;;;;17.05;9.52;;;;;;;;;;5000989;28;20234;-72
2023/07/24 04:45:02;;;;;;;14.83;8.77;;;;;;;;;;5000166;28;20042;-67
2023/07/24 04:47:27;;;;;;;15.27;9.60;;;;;;;;;;5000422;28;20324;-75
2023/07/24 04:49:53;;;;;;;15.93;9.23;;;;;;;;;;4998203;28;20114;-70
2023/07/24 04:52:18;;;;;;;14.90;8.80;;;;;;;;;;4984335;28;20281;-74
2023/07/24 04:54:43;;;;;;;14.35;8.80;;;;;;;;;;4998822;28;20178;-71
2023/07/24 04:57:08;;;;;;;16.23;9.48;;;;;;;;;;4985369;28;20534;-68
2023/07/24 04:59:34;;;;;;;13.63;8.83;;;;;;;;;;4995953;28;20045;-72
2023/07/24 05:01:59;;;;;;;16.73;8.97;;;;;;;;;;4998056;28;20355;-73
2023/07/24 05:04:24;;;;;;;17.33;9.35;;;;;;;;;;4982404;28;20931;-70
2023/07/24 05:06:49;;;;;;;18.43;9.53;;;;;;;;;;5000326;28;20139;-69
2023/07/24 05:09:15;;;;;;;15.70;9.70;;;;;;;;;;5000476;28;20300;-69
2023/07/24 05:11:41;;;;;;;19.83;11.80;;;;;;;;;;5000775;28;20300;-73
2023/07/24 05:14:07;;;;;;;19.55;9.95;;;;;;;;;;4996866;28;20047;-68
2023/07/24 05:16:32;;;;;;;16.50;9.77;;;;;;;;;;4996460;28;20481;-67
2023/07/24 05:18:57;;;;;;;15.50;9.47;;;;;;;;;;4997817;28;20293;-64
2023/07/24 05:21:22;;;;;;;15.40;8.90;;;;;;;;;;4999101;28;20325;-68
2023/07/24 05:23:48;;;;;;;16.33;9.03;;;;;;;;;;4999268;28;20297;-69
2023/07/24 05:26:13;;;;;;;17.48;12.05;;;;;;;;;;4999148;28;20305;-71
2023/07/24 05:28:38;;;;;;;17.30;9.23;;;;;;;;;;4996579;28;20430;-66
2023/07/24 05:31:03;;;;;;;16.33;9.20;;;;;;;;;;5002196;28;20319;-70
2023/07/24 05:33:29;;;;;;;17.42;9.75;;;;;;;;;;4984121;28;20038;-73
2023/07/24 05:36:01;;;;;;;15.05;9.52;;;;;;;;;;4983778;28;20021;-66
2023/07/24 05:38:26;;;;;;;16.70;8.98;;;;;;;;;;4996471;28;20038;-66
2023/07/24 05:40:58;;;;;;;18.95;9.98;;;;;;;;;;4976146;28;20034;-68
2023/07/24 05:43:23;;;;;;;14.70;9.20;;;;;;;;;;5000827;28;20082;-70
2023/07/24 05:45:49;;;;;;;16.30;9.18;;;;;;;;;;4999472;28;20461;-67
2023/07/24 05:48:15;;;;;;;16.30;9.45;;;;;;;;;;4997889;28;20487;-67
2023/07/24 05:50:41;;;;;;;15.03;9.10;;;;;;;;;;4985394;28;20111;-68
2023/07/24 05:53:06;;;;;;;15.40;9.13;;;;;;;;;;4996302;28;20396;-67
2023/07/24 05:55:32;;;;;;;13.77;9.43;;;;;;;;;;4982893;28;20895;-66
2023/07/24 05:57:57;;;;;;;16.17;9.20;;;;;;;;;;4983654;28;20502;-67
2023/07/24 06:00:22;;;;;;;15.27;8.67;;;;;;;;;;4997732;28;20375;-64
2023/07/24 06:02:47;;;;;;;14.77;8.70;;;;;;;;;;4976111;28;20303;-71
2023/07/24 06:05:13;;;;;;;15.83;9.73;;;;;;;;;;5007724;28;20057;-66
2023/07/24 06:07:38;;;;;;;16.80;9.52;;;;;;;;;;5007043;28;20041;-62
2023/07/24 06:10:03;;;;;;;17.40;9.47;;;;;;;;;;5006377;28;20076;-63
2023/07/24 06:12:28;;;;;;;16.55;9.48;;;;;;;;;;5006191;28;20276;-68
2023/07/24 06:14:54;;;;;;;15.10;8.90;;;;;;;;;;5007098;28;20100;-69
2023/07/24 06:17:19;;;;;;;17.53;9.63;;;;;;;;;;4986505;28;20099;-66
2023/07/24 06:19:44;;;;;;;15.03;8.53;;;;;;;;;;4999404;28;20297;-67
2023/07/24 06:22:09;;;;;;;15.93;9.05;;;;;;;;;;4999650;28;20807;-67
2023/07/24 06:24:35;;;;;;;16.97;9.30;;;;;;;;;;4995783;28;20041;-67
2023/07/24 06:27:00;;;;;;;17.40;9.70;;;;;;;;;;4997563;28;20300;-65
2023/07/24 06:29:25;;;;;;;14.90;9.23;;;;;;;;;;4997040;28;20304;-65
2023/07/24 06:31:51;;;;;;;18.20;9.85;;;;;;;;;;4976464;28;20529;-68
2023/07/24 06:34:16;;;;;;;16.10;8.80;;;;;;;;;;4996788;28;20065;-66
2023/07/24 06:36:41;;;;;;;15.23;9.45;;;;;;;;;;4964416;28;20817;-67
2023/07/24 06:39:07;;;;;;;15.60;9.20;;;;;;;;;;4995910;28;20037;-71
2023/07/24 06:41:32;;;;;;;16.83;8.48;;;;;;;;;;4978328;28;20045;-65
2023/07/24 06:43:57;;;;;;;14.87;8.57;;;;;;;;;;4998400;28;20038;-68
2023/07/24 06:46:22;;;;;;;13.60;8.10;;;;;;;;;;4964103;28;21250;-67
2023/07/24 06:48:48;;;;;;;14.70;8.25;;;;;;;;;;4997665;28;20308;-76
2023/07/24 06:51:13;;;;;;;14.40;9.05;;;;;;;;;;4963590;28;20490;-63
2023/07/24 06:53:38;;;;;;;13.47;7.70;;;;;;;;;;4989354;28;20247;-70
2023/07/24 06:56:04;;;;;;;14.57;8.23;;;;;;;;;;4996025;28;20335;-67
2023/07/24 06:58:29;;;;;;;13.48;8.23;;;;;;;;;;5002886;28;20055;-69
2023/07/24 07:00:55;;;;;;;14.33;8.03;;;;;;;;;;4999529;28;20026;-69
2023/07/24 07:03:20;;;;;;;11.48;7.28;;;;;;;;;;4999556;28;20335;-66
2023/07/24 07:05:45;;;;;;;13.33;8.20;;;;;;;;;;5001817;28;20568;-67
2023/07/24 07:08:10;;;;;;;16.57;7.93;;;;;;;;;;4984222;28;20289;-67
2023/07/24 07:10:36;;;;;;;12.98;7.78;;;;;;;;;;4999209;28;20042;-68
2023/07/24 07:13:01;;;;;;;13.40;8.07;;;;;;;;;;4997209;28;20060;-66
2023/07/24 07:15:26;;;;;;;12.20;7.97;;;;;;;;;;4998303;28;20189;-64
2023/07/24 07:17:51;;;;;;;12.17;7.57;;;;;;;;;;4982616;28;20076;-67
2023/07/24 07:20:17;;;;;;;12.27;7.30;;;;;;;;;;4999723;28;20411;-66
2023/07/24 07:22:42;;;;;;;11.48;7.28;;;;;;;;;;4999365;28;20042;-68
2023/07/24 07:25:07;;;;;;;11.68;7.45;;;;;;;;;;4985472;28;20140;-64
2023/07/24 07:27:33;;;;;;;13.35;7.63;;;;;;;;;;4988017;28;20054;-67
2023/07/24 07:29:58;;;;;;;13.00;7.90;;;;;;;;;;4981400;28;20057;-63
2023/07/24 07:32:23;;;;;;;13.27;8.32;;;;;;;;;;4977653;28;20040;-63
2023/07/24 07:34:48;;;;;;;12.98;7.50;;;;;;;;;;4978184;28;20185;-63
2023/07/24 07:37:14;;;;;;;12.07;7.53;;;;;;;;;;5000862;28;20577;-64
2023/07/24 07:39:39;;;;;;;13.13;8.03;;;;;;;;;;5005008;28;20196;-63
2023/07/24 07:42:04;;;;;;;12.27;7.70;;;;;;;;;;5004277;28;20082;-63
2023/07/24 07:44:30;;;;;;;11.27;7.18;;;;;;;;;;4991864;28;20046;-66
2023/07/24 07:46:55;;;;;;;13.35;7.68;;;;;;;;;;4992078;28;20392;-63
2023/07/24 07:49:20;;;;;;;16.80;7.57;;;;;;;;;;4993139;28;20197;-62
2023/07/24 07:51:45;;;;;;;14.77;8.18;;;;;;;;;;4977032;28;20297;-61
2023/07/24 07:54:11;;;;;;;14.20;7.63;;;;;;;;;;4975313;28;20514;-63
2023/07/24 07:56:36;;;;;;;12.75;8.25;;;;;;;;;;4999281;28;20427;-63
2023/07/24 07:59:01;;;;;;;13.35;7.93;;;;;;;;;;4978991;28;20419;-62
2023/07/24 08:01:26;;;;;;;13.20;7.97;;;;;;;;;;4976805;28;20061;-63
2023/07/24 08:03:52;;;;;;;15.60;7.78;;;;;;;;;;4995826;28;20038;-64
2023/07/24 08:06:17;;;;;;;12.10;6.73;;;;;;;;;;4983450;28;20034;-65
2023/07/24 08:08:42;;;;;;;13.40;7.83;;;;;;;;;;4984292;28;20507;-64
2023/07/24 08:11:07;;;;;;;12.27;7.90;;;;;;;;;;4977159;28;20810;-62
2023/07/24 08:13:33;;;;;;;11.30;7.45;;;;;;;;;;4993886;28;20325;-64
2023/07/24 08:15:59;;;;;;;12.98;7.75;;;;;;;;;;5002274;28;20641;-63
2023/07/24 08:18:25;;;;;;;12.95;7.78;;;;;;;;;;4988218;28;20732;-64
2023/07/24 08:20:50;;;;;;;12.77;7.80;;;;;;;;;;5003054;28;20050;-65
2023/07/24 08:23:15;;;;;;;13.50;7.55;;;;;;;;;;5000339;28;20038;-65
2023/07/24 08:25:40;;;;;;;12.97;7.57;;;;;;;;;;4983938;28;20042;-63
2023/07/24 08:28:06;;;;;;;15.33;8.63;;;;;;;;;;4979642;28;20293;-66
2023/07/24 08:30:31;;;;;;;13.68;8.75;;;;;;;;;;4969111;28;20370;-64
2023/07/24 08:32:57;;;;;;;12.90;8.07;;;;;;;;;;4999827;28;20459;-66
2023/07/24 08:35:22;;;;;;;13.68;7.90;;;;;;;;;;4997804;28;20046;-65
2023/07/24 08:37:48;;;;;;;14.63;8.45;;;;;;;;;;4989030;28;20042;-64
2023/07/24 08:40:13;;;;;;;14.25;8.70;;;;;;;;;;4996432;28;20030;-64
2023/07/24 08:42:39;;;;;;;14.25;9.25;;;;;;;;;;4979288;28;20069;-65
2023/07/24 08:45:05;;;;;;;15.15;8.30;;;;;;;;;;4997698;28;20035;-64
2023/07/24 08:47:30;;;;;;;13.57;8.73;;;;;;;;;;4998276;28;20359;-63
2023/07/24 08:49:55;;;;;;;14.37;8.93;;;;;;;;;;4979980;28;20510;-66
2023/07/24 08:52:20;;;;;;;12.97;8.67;;;;;;;;;;4980365;28;20038;-64
2023/07/24 08:54:46;;;;;;;14.52;8.00;;;;;;;;;;4997154;28;20323;-66
2023/07/24 08:57:11;;;;;;;15.33;8.60;;;;;;;;;;4996781;28;20121;-63
2023/07/24 08:59:36;;;;;;;17.85;8.50;;;;;;;;;;4998428;28;20069;-63
2023/07/24 09:02:01;;;;;;;17.33;8.63;;;;;;;;;;5001296;28;20044;-64
2023/07/24 09:04:27;;;;;;;13.90;8.60;;;;;;;;;;4996005;28;20288;-63
2023/07/24 09:06:52;;;;;;;14.77;8.53;;;;;;;;;;4978668;28;20428;-64
2023/07/24 09:09:18;;;;;;;15.18;8.80;;;;;;;;;;4996330;28;20038;-65
2023/07/24 09:11:50;;;;;;;14.85;8.20;;;;;;;;;;4995636;28;20507;-69
2023/07/24 09:14:22;;;;;;;12.13;8.48;;;;;;;;;;4997586;28;20140;-66
2023/07/24 09:16:47;;;;;;;15.57;8.65;;;;;;;;;;5001379;28;20038;-66
2023/07/24 09:19:21;;;;;;;12.20;7.80;;;;;;;;;;4996531;28;20041;-67
2023/07/24 09:21:46;;;;;;;14.95;9.20;;;;;;;;;;4997656;28;20296;-69
2023/07/24 09:24:12;;;;;;;14.88;8.57;;;;;;;;;;4997913;28;20017;-67
2023/07/24 09:26:52;;;;;;;11.75;7.72;;;;;;;;;;4997695;28;20390;-68
2023/07/24 09:29:18;;;;;;;12.20;7.50;;;;;;;;;;4997901;28;20021;-66
2023/07/24 09:31:43;;;;;;;15.43;8.52;;;;;;;;;;4980912;28;20032;-66
2023/07/24 09:34:15;;;;;;;11.93;8.10;;;;;;;;;;4980970;28;20041;-68
2023/07/24 09:36:41;;;;;;;13.68;8.73;;;;;;;;;;4995281;28;20057;-69
2023/07/24 09:39:10;;;;;;;16.80;8.73;;;;;;;;;;4996115;28;20053;-65
2023/07/24 09:41:35;;;;;;;13.48;8.23;;;;;;;;;;4993996;28;20379;-69
2023/07/24 09:44:00;;;;;;;13.10;8.03;;;;;;;;;;4992165;28;20275;-65
2023/07/24 09:46:26;;;;;;;13.97;8.67;;;;;;;;;;4977793;28;20297;-68
2023/07/24 09:48:51;;;;;;;12.75;8.20;;;;;;;;;;4994894;28;20049;-63
2023/07/24 09:51:16;;;;;;;13.57;8.20;;;;;;;;;;4990752;28;20030;-68
2023/07/24 09:53:48;;;;;;;14.50;8.53;;;;;;;;;;4990808;28;20301;-66
2023/07/24 09:56:13;;;;;;;14.00;8.43;;;;;;;;;;4994692;28;20072;-67
2023/07/24 09:58:38;;;;;;;14.93;8.30;;;;;;;;;;4979820;28;20719;-68
2023/07/24 10:01:05;;;;;;;14.73;8.57;;;;;;;;;;4997478;28;20295;-68
2023/07/24 10:03:31;;;;;;;12.77;8.00;;;;;;;;;;4996983;28;20037;-65
2023/07/24 10:05:56;;;;;;;14.95;8.55;;;;;;;;;;4997550;28;20041;-66
2023/07/24 10:08:21;;;;;;;13.57;8.23;;;;;;;;;;4993876;28;20072;-68
2023/07/24 10:10:50;;;;;;;12.83;8.00;;;;;;;;;;4996482;28;20293;-68
2023/07/24 10:13:16;;;;;;;15.33;8.20;;;;;;;;;;4996976;28;20641;-66
2023/07/24 10:15:42;;;;;;;13.83;7.93;;;;;;;;;;4995042;28;20313;-66
2023/07/24 10:18:07;;;;;;;13.85;7.97;;;;;;;;;;4980274;28;20300;-67
2023/07/24 10:20:33;;;;;;;16.23;8.43;;;;;;;;;;4980643;28;20049;-65
2023/07/24 10:23:00;;;;;;;14.48;8.65;;;;;;;;;;4964448;28;20418;-69
2023/07/24 10:25:28;;;;;;;12.65;8.20;;;;;;;;;;4995851;28;20052;-64
2023/07/24 10:27:54;;;;;;;16.02;8.35;;;;;;;;;;4995954;28;20091;-64
2023/07/24 10:30:27;;;;;;;14.75;8.20;;;;;;;;;;4978432;28;20046;-64
2023/07/24 10:32:52;;;;;;;13.63;7.88;;;;;;;;;;4995592;28;20463;-67
2023/07/24 10:35:20;;;;;;;14.77;8.10;;;;;;;;;;4995610;28;20056;-64
2023/07/24 10:37:45;;;;;;;13.45;7.65;;;;;;;;;;4996306;28;20034;-68
2023/07/24 10:40:18;;;;;;;14.13;8.63;;;;;;;;;;4995191;28;20057;-63
2023/07/24 10:42:43;;;;;;;13.55;7.88;;;;;;;;;;4995859;28;22294;-67
2023/07/24 10:45:10;;;;;;;14.73;7.83;;;;;;;;;;4996371;28;20478;-68
2023/07/24 10:47:35;;;;;;;13.27;7.78;;;;;;;;;;4994978;28;20033;-67
2023/07/24 10:50:02;;;;;;;15.43;7.60;;;;;;;;;;4994036;28;20042;-65
2023/07/24 10:52:29;;;;;;;15.40;8.23;;;;;;;;;;4995148;28;20165;-68
2023/07/24 10:54:55;;;;;;;14.13;7.65;;;;;;;;;;4986632;28;20459;-64
2023/07/24 10:57:25;;;;;;;13.55;7.78;;;;;;;;;;4993166;28;20077;-69
2023/07/24 10:59:50;;;;;;;;;;;;;;;;;;4990316;28;20125;-67
2023/07/24 11:02:16;;;;;;;14.40;7.80;;;;;;;;;;4989744;28;20017;-66
2023/07/24 11:04:41;;;;;;;14.32;6.63;;;;;;;;;;4974088;28;20069;-65
2023/07/24 11:07:07;;;;;;;14.35;7.03;;;;;;;;;;4995419;28;20030;-66
2023/07/24 11:09:37;;;;;;;13.00;7.22;;;;;;;;;;4975456;28;20061;-68
2023/07/24 11:12:14;;;;;;;13.00;6.93;;;;;;;;;;4995235;28;20037;-65
2023/07/24 11:14:46;;;;;;;14.45;6.65;;;;;;;;;;4973896;28;20538;-65
2023/07/24 11:17:11;;;;;;;12.32;6.35;;;;;;;;;;4974650;28;20053;-65
2023/07/24 11:19:37;;;;;;;9.18;6.00;;;;;;;;;;4992170;28;20049;-63
2023/07/24 11:22:03;;;;;;;11.68;6.35;;;;;;;;;;4992621;28;20034;-68
2023/07/24 11:24:28;;;;;;;12.43;6.10;;;;;;;;;;4989323;28;20046;-68
2023/07/24 11:26:54;;;;;;;13.23;6.53;;;;;;;;;;4995470;28;20359;-68
2023/07/24 11:29:19;;;;;;;11.77;6.27;;;;;;;;;;4992240;28;20386;-66
2023/07/24 11:31:44;;;;;;;11.43;6.07;;;;;;;;;;4993536;28;20034;-63
2023/07/24 11:34:09;;;;;;;12.03;6.00;;;;;;;;;;4993147;28;20058;-68
2023/07/24 11:36:34;;;;;;;11.23;5.87;;;;;;;;;;4993705;28;20041;-66
2023/07/24 11:39:00;;;;;;;10.50;5.80;;;;;;;;;;4961114;28;20305;-67
2023/07/24 11:41:25;;;;;;;13.07;7.00;;;;;;;;;;4971668;28;20353;-67
2023/07/24 11:43:51;;;;;;;12.00;6.25;;;;;;;;;;4968990;28;20050;-67
2023/07/24 11:46:25;;;;;;;9.23;5.50;;;;;;;;;;4977272;28;20781;-65
2023/07/24 11:48:53;;;;;;;12.88;6.25;;;;;;;;;;4992063;28;20425;-66
2023/07/24 11:51:18;;;;;;;13.15;6.75;;;;;;;;;;4979600;28;20193;-68
2023/07/24 11:53:44;;;;;;;10.43;6.25;;;;;;;;;;4994331;28;20102;-63
2023/07/24 11:56:13;;;;;;;12.67;6.73;;;;;;;;;;4981653;28;20044;-64
2023/07/24 11:58:38;;;;;;;14.40;6.68;;;;;;;;;;4993684;28;20446;-67
2023/07/24 12:01:03;;;;;;;12.23;6.60;;;;;;;;;;4988088;28;20026;-67
2023/07/24 12:03:29;;;;;;;12.67;6.53;;;;;;;;;;4992870;28;20780;-67
2023/07/24 12:05:54;;;;;;;13.25;7.03;;;;;;;;;;4991292;28;20486;-66
2023/07/24 12:08:21;;;;;;;10.87;6.90;;;;;;;;;;4973508;28;20038;-66
2023/07/24 12:10:46;;;;;;;11.25;6.45;;;;;;;;;;4991946;28;20036;-65
2023/07/24 12:13:12;;;;;;;11.25;6.45;;;;;;;;;;4973890;28;20042;-63
2023/07/24 12:15:37;;;;;;;13.85;6.63;;;;;;;;;;4992034;28;20125;-67
2023/07/24 12:18:03;;;;;;;10.65;6.72;;;;;;;;;;4994841;28;20038;-66
2023/07/24 12:20:28;;;;;;;13.60;6.90;;;;;;;;;;4977845;28;20072;-67
2023/07/24 12:22:54;;;;;;;12.55;6.70;;;;;;;;;;4979770;28;20493;-64
2023/07/24 12:25:19;;;;;;;12.15;6.60;;;;;;;;;;4994139;28;20050;-66
2023/07/24 12:27:45;;;;;;;10.77;6.43;;;;;;;;;;4980579;28;20065;-67
2023/07/24 12:30:10;;;;;;;14.15;7.45;;;;;;;;;;4998707;28;20030;-68
2023/07/24 12:32:35;;;;;;;13.50;7.33;;;;;;;;;;4999933;28;20045;-67
2023/07/24 12:35:01;;;;;;;11.32;6.72;;;;;;;;;;5002279;28;20804;-67
2023/07/24 12:37:26;;;;;;;14.17;7.10;;;;;;;;;;5007514;28;20065;-63
2023/07/24 12:39:51;;;;;;;12.38;6.47;;;;;;;;;;4974686;28;20669;-64
2023/07/24 12:42:17;;;;;;;10.50;6.43;;;;;;;;;;4998577;28;20049;-64
2023/07/24 12:44:42;;;;;;;14.35;7.10;;;;;;;;;;4975213;28;20026;-63
2023/07/24 12:47:07;;;;;;;13.00;6.23;;;;;;;;;;4986029;28;20081;-64
2023/07/24 12:49:32;;;;;;;16.40;6.95;;;;;;;;;;4983795;28;20430;-64
2023/07/24 12:51:58;;;;;;;16.57;7.07;;;;;;;;;;4995402;28;20589;-64
2023/07/24 12:54:23;;;;;;;16.40;6.37;;;;;;;;;;4986607;28;20053;-65
2023/07/24 12:56:49;;;;;;;17.52;7.43;;;;;;;;;;4994768;28;20291;-65
2023/07/24 12:59:14;;;;;;;14.57;7.32;;;;;;;;;;4966097;28;20716;-65
2023/07/24 13:01:39;;;;;;;18.33;7.47;;;;;;;;;;4980877;28;20045;-66
2023/07/24 13:04:05;;;;;;;17.25;6.65;;;;;;;;;;4991649;28;21350;-66
2023/07/24 13:06:30;;;;;;;14.80;7.13;;;;;;;;;;4993159;28;20049;-63
2023/07/24 13:08:55;;;;;;;11.55;6.85;;;;;;;;;;4992348;28;20036;-66
2023/07/24 13:11:21;;;;;;;13.00;7.30;;;;;;;;;;4992141;28;20026;-63
2023/07/24 13:13:46;;;;;;;12.65;6.80;;;;;;;;;;4979778;28;20041;-66
2023/07/24 13:16:11;;;;;;;11.40;7.17;;;;;;;;;;4978794;28;20034;-66
2023/07/24 13:18:37;;;;;;;13.37;6.73;;;;;;;;;;4994921;28;20824;-65
2023/07/24 13:21:02;;;;;;;11.87;7.10;;;;;;;;;;4994796;28;20513;-66
2023/07/24 13:23:27;;;;;;;13.63;6.68;;;;;;;;;;4994145;28;20796;-64
2023/07/24 13:25:53;;;;;;;10.87;6.80;;;;;;;;;;4976493;28;20124;-65
2023/07/24 13:28:18;;;;;;;10.25;6.38;;;;;;;;;;4991832;28;20121;-63
2023/07/24 13:30:43;;;;;;;13.80;7.00;;;;;;;;;;4979002;28;20556;-65
2023/07/24 13:33:09;;;;;;;11.40;6.78;;;;;;;;;;4976231;28;20486;-64
2023/07/24 13:35:34;;;;;;;12.23;7.27;;;;;;;;;;4993130;28;20096;-62
2023/07/24 13:37:59;;;;;;;12.20;6.75;;;;;;;;;;4998353;28;20277;-64
2023/07/24 13:40:25;;;;;;;11.53;7.10;;;;;;;;;;4994913;28;20847;-65
2023/07/24 13:42:50;;;;;;;10.60;6.65;;;;;;;;;;5000775;28;20288;-66
2023/07/24 13:45:15;;;;;;;12.40;6.90;;;;;;;;;;4982074;28;20408;-65
2023/07/24 13:47:40;;;;;;;9.68;6.45;;;;;;;;;;5006966;28;20272;-64
2023/07/24 13:50:06;;;;;;;12.20;6.57;;;;;;;;;;5002135;28;20630;-65
2023/07/24 13:52:32;;;;;;;10.23;6.18;;;;;;;;;;4998059;28;20029;-64
2023/07/24 13:54:57;;;;;;;10.75;6.22;;;;;;;;;;4995927;28;20037;-65
2023/07/24 13:57:23;;;;;;;12.63;6.63;;;;;;;;;;4996067;28;20034;-65
2023/07/24 13:59:48;;;;;;;10.10;6.45;;;;;;;;;;5001241;28;20883;-62
2023/07/24 14:02:13;;;;;;;10.23;6.27;;;;;;;;;;4992413;28;20025;-65
2023/07/24 14:04:39;;;;;;;10.32;5.88;;;;;;;;;;4999519;28;20298;-66
2023/07/24 14:07:04;;;;;;;10.45;6.43;;;;;;;;;;5001426;28;20022;-67
2023/07/24 14:09:30;;;;;;;9.07;5.97;;;;;;;;;;4997730;28;20030;-66
2023/07/24 14:11:56;;;;;;;8.75;6.10;;;;;;;;;;4979802;28;20467;-67
2023/07/24 14:14:23;;;;;;;9.00;6.38;;;;;;;;;;4998386;28;20044;-66
2023/07/24 14:16:48;;;;;;;9.90;5.97;;;;;;;;;;4994105;28;20121;-68
2023/07/24 14:19:14;;;;;;;9.00;6.30;;;;;;;;;;4984996;28;20101;-67
2023/07/24 14:21:40;;;;;;;10.70;6.50;;;;;;;;;;4996958;28;20076;-67